createdAt,value
2022-09-10T00:01:13.913Z,70.80
2022-09-10T00:04:40.876Z,70.30
2022-09-10T00:08:08.753Z,75.30
2022-09-10T00:11:38.904Z,73.00
2022-09-10T00:15:08.333Z,70.30
2022-09-10T00:18:53.910Z,75.10
2022-09-10T00:22:23.040Z,72.80
2022-09-10T00:26:23.312Z,76.50
2022-09-10T00:29:54.503Z,76.60
2022-09-10T00:33:46.378Z,69.80
2022-09-10T00:37:13.354Z,76.00
2022-09-10T00:40:41.489Z,70.50
2022-09-10T00:44:35.555Z,75.10
2022-09-10T00:48:07.325Z,75.70
2022-09-10T00:51:37.314Z,80.30
2022-09-10T00:55:04.516Z,77.30
2022-09-10T00:58:33.066Z,78.10
2022-09-10T01:02:00.180Z,79.60
2022-09-10T01:05:29.779Z,84.40
2022-09-10T01:08:57.142Z,85.30
2022-09-10T01:12:42.703Z,86.10
2022-09-10T01:16:19.101Z,78.90
2022-09-10T01:20:11.325Z,83.20
2022-09-10T01:24:21.656Z,80.20
2022-09-10T01:27:51.696Z,75.40
2022-09-10T01:31:24.903Z,79.30
2022-09-10T01:34:59.574Z,78.80
2022-09-10T01:38:31.991Z,77.40
2022-09-10T01:42:00.499Z,76.40
2022-09-10T01:45:41.101Z,87.30
2022-09-10T01:49:31.415Z,78.90
2022-09-10T01:53:16.301Z,81.50
2022-09-10T01:56:49.144Z,79.20
2022-09-10T02:00:22.924Z,88.10
2022-09-10T02:03:59.285Z,78.20
2022-09-10T02:07:28.376Z,81.50
2022-09-10T02:10:57.510Z,88.30
2022-09-10T02:14:27.495Z,85.50
2022-09-10T02:18:22.558Z,80.60
2022-09-10T02:21:49.968Z,85.70
2022-09-10T02:25:17.840Z,80.00
2022-09-10T02:28:45.974Z,84.00
2022-09-10T02:32:13.526Z,76.10
2022-09-10T02:35:40.597Z,82.50
2022-09-10T02:39:08.381Z,77.20
2022-09-10T02:42:35.284Z,76.70
2022-09-10T02:46:02.634Z,78.20
2022-09-10T02:49:29.785Z,76.80
2022-09-10T02:52:58.225Z,67.50
2022-09-10T02:56:25.462Z,70.80
2022-09-10T02:59:54.124Z,70.00
2022-09-10T03:03:23.951Z,70.10
2022-09-10T03:06:51.997Z,69.70
2022-09-10T03:10:20.800Z,70.30
2022-09-10T03:13:48.206Z,66.60
2022-09-10T03:17:14.953Z,64.90
2022-09-10T03:20:42.109Z,64.60
2022-09-10T03:24:10.605Z,55.20
2022-09-10T03:27:38.628Z,61.80
2022-09-10T03:31:08.883Z,63.00
2022-09-10T03:34:40.725Z,63.50
2022-09-10T03:38:07.435Z,63.30
2022-09-10T03:41:35.343Z,67.30
2022-09-10T03:45:02.232Z,66.10
2022-09-10T03:48:31.015Z,63.90
2022-09-10T03:51:58.152Z,63.90
2022-09-10T03:55:26.182Z,60.70
2022-09-10T03:58:53.535Z,57.90
2022-09-10T04:02:20.716Z,52.60
2022-09-10T04:05:49.164Z,53.20
2022-09-10T04:09:18.438Z,53.60
2022-09-10T04:12:46.002Z,49.90
2022-09-10T04:16:13.459Z,46.20
2022-09-10T04:19:41.030Z,40.50
2022-09-10T04:23:08.121Z,44.80
2022-09-10T04:26:37.154Z,39.80
2022-09-10T04:30:06.635Z,37.60
2022-09-10T04:33:34.779Z,37.00
2022-09-10T04:37:02.137Z,35.50
2022-09-10T04:40:31.800Z,36.80
2022-09-10T04:43:58.660Z,35.20
2022-09-10T04:47:25.258Z,34.50
2022-09-10T04:51:14.670Z,32.70
2022-09-10T04:54:43.411Z,32.00
2022-09-10T04:58:10.992Z,29.90
2022-09-10T05:01:39.167Z,40.40
2022-09-10T05:05:07.260Z,29.60
2022-09-10T05:08:35.137Z,41.40
2022-09-10T05:12:02.999Z,26.40
2022-09-10T05:15:30.165Z,26.50
2022-09-10T05:18:57.596Z,23.50
2022-09-10T05:22:29.979Z,27.80
2022-09-10T05:26:02.431Z,30.10
2022-09-10T05:29:30.094Z,31.30
2022-09-10T05:33:00.069Z,30.90
2022-09-10T05:36:28.345Z,36.40
2022-09-10T05:39:55.531Z,37.30
2022-09-10T05:43:22.771Z,39.10
2022-09-10T05:46:50.104Z,37.30
2022-09-10T05:50:18.106Z,35.00
2022-09-10T05:53:45.146Z,35.40
2022-09-10T05:57:12.216Z,37.70
2022-09-10T06:00:38.973Z,39.20
2022-09-10T06:04:08.250Z,43.50
2022-09-10T06:07:37.001Z,40.00
2022-09-10T06:11:10.892Z,42.40
2022-09-10T06:14:42.337Z,45.60
2022-09-10T06:18:11.925Z,45.40
2022-09-10T06:21:39.645Z,55.20
2022-09-10T06:25:12.261Z,47.40
2022-09-10T06:28:41.320Z,54.20
2022-09-10T06:32:09.086Z,49.90
2022-09-10T06:35:37.943Z,62.30
2022-09-10T06:39:07.411Z,56.60
2022-09-10T06:42:48.760Z,56.00
2022-09-10T06:46:54.927Z,59.90
2022-09-10T06:50:12.451Z,58.60
2022-09-10T06:53:42.831Z,59.70
2022-09-10T06:57:11.833Z,63.70
2022-09-10T07:00:39.688Z,59.50
2022-09-10T07:04:09.334Z,57.70
2022-09-10T07:07:36.629Z,56.80
2022-09-10T07:11:07.202Z,59.50
2022-09-10T07:14:35.652Z,55.50
2022-09-10T07:18:07.866Z,53.70
2022-09-10T07:21:38.112Z,49.70
2022-09-10T07:25:09.472Z,54.80
2022-09-10T07:29:08.428Z,50.20
2022-09-10T07:32:37.374Z,52.30
2022-09-10T07:36:14.518Z,46.90
2022-09-10T07:39:41.504Z,51.10
2022-09-10T07:43:10.369Z,46.80
2022-09-10T07:46:38.986Z,45.50
2022-09-10T07:50:11.211Z,48.00
2022-09-10T07:53:42.151Z,41.30
2022-09-10T07:57:18.150Z,36.10
2022-09-10T08:00:44.881Z,33.90
2022-09-10T08:04:11.718Z,34.60
2022-09-10T08:07:39.280Z,34.90
2022-09-10T08:11:27.743Z,25.60
2022-09-10T08:14:58.034Z,27.40
2022-09-10T08:18:25.248Z,26.60
2022-09-10T08:21:53.746Z,24.90
2022-09-10T08:25:27.528Z,24.00
2022-09-10T08:29:03.582Z,25.00
2022-09-10T08:32:31.516Z,26.80
2022-09-10T08:36:00.191Z,25.00
2022-09-10T08:39:28.250Z,27.90
2022-09-10T08:42:57.057Z,29.10
2022-09-10T08:46:28.413Z,31.40
2022-09-10T08:50:00.624Z,28.00
2022-09-10T08:53:34.742Z,32.80
2022-09-10T09:00:33.973Z,30.70
2022-09-10T09:04:13.254Z,28.00
2022-09-10T09:07:51.009Z,26.50
2022-09-10T09:11:28.460Z,29.00
2022-09-10T09:15:09.094Z,29.40
2022-09-10T09:18:55.515Z,24.90
2022-09-10T09:22:29.780Z,25.20
2022-09-10T09:26:00.544Z,24.00
2022-09-10T09:29:35.729Z,24.20
2022-09-10T09:33:14.940Z,23.60
2022-09-10T09:36:45.257Z,27.90
2022-09-10T09:40:22.275Z,30.80
2022-09-10T09:43:59.660Z,32.50
2022-09-10T09:47:27.743Z,32.90
2022-09-10T09:51:01.075Z,30.80
2022-09-10T09:55:03.210Z,35.70
2022-09-10T09:58:41.419Z,36.40
2022-09-10T10:02:21.220Z,34.00
2022-09-10T10:05:51.366Z,44.40
2022-09-10T10:09:28.002Z,40.50
2022-09-10T10:12:56.672Z,37.30
2022-09-10T10:16:34.153Z,36.70
2022-09-10T10:20:04.676Z,42.00
2022-09-10T10:23:54.632Z,38.40
2022-09-10T10:27:24.695Z,36.30
2022-09-10T10:30:57.784Z,36.80
2022-09-10T10:38:40.683Z,40.00
2022-09-10T10:42:14.593Z,34.80
2022-09-10T10:45:52.707Z,37.10
2022-09-10T10:49:32.345Z,34.40
2022-09-10T10:53:16.595Z,37.40
2022-09-10T10:56:53.131Z,34.30
2022-09-10T11:00:21.780Z,34.60
2022-09-10T11:03:56.836Z,33.40
2022-09-10T11:07:30.211Z,37.10
2022-09-10T11:11:02.126Z,37.80
2022-09-10T11:14:36.156Z,38.40
2022-09-10T11:18:11.604Z,34.20
2022-09-10T11:21:44.299Z,35.30
2022-09-10T11:25:21.594Z,33.50
2022-09-10T11:29:05.520Z,30.40
2022-09-10T11:32:49.294Z,31.90
2022-09-10T11:36:25.565Z,30.80
2022-09-10T11:39:57.374Z,34.80
2022-09-10T11:43:44.858Z,33.20
2022-09-10T11:47:17.844Z,30.70
2022-09-10T11:50:57.599Z,33.80
2022-09-10T11:54:30.170Z,34.00
2022-09-10T11:58:06.335Z,29.80
2022-09-10T12:02:02.885Z,31.70
2022-09-10T12:05:44.026Z,30.70
2022-09-10T12:09:19.271Z,33.40
2022-09-10T12:12:50.090Z,32.60
2022-09-10T12:16:35.339Z,28.40
2022-09-10T12:20:06.193Z,29.20
2022-09-10T12:23:40.052Z,28.80
2022-09-10T12:27:10.452Z,27.30
2022-09-10T12:31:04.103Z,25.80
2022-09-10T12:34:31.474Z,29.70
2022-09-10T12:38:50.563Z,27.90
2022-09-10T12:42:37.380Z,27.80
2022-09-10T12:46:29.801Z,28.50
2022-09-10T12:49:59.534Z,26.80
2022-09-10T12:54:11.234Z,27.10
2022-09-10T12:57:45.663Z,28.50
2022-09-10T13:01:25.793Z,27.60
2022-09-10T13:05:07.933Z,28.90
2022-09-10T13:08:42.902Z,28.10
2022-09-10T13:12:27.542Z,31.80
2022-09-10T13:15:56.054Z,29.30
2022-09-10T13:19:50.818Z,27.60
2022-09-10T13:23:25.705Z,27.20
2022-09-10T13:27:03.954Z,26.90
2022-09-10T13:30:32.551Z,25.60
2022-09-10T13:34:28.516Z,26.90
2022-09-10T13:38:30.606Z,23.80
2022-09-10T13:42:13.029Z,23.90
2022-09-10T13:45:51.165Z,20.00
2022-09-10T13:49:29.745Z,18.60
2022-09-10T13:53:00.330Z,19.50
2022-09-10T13:56:32.420Z,19.10
2022-09-10T14:00:08.907Z,19.20
2022-09-10T14:03:39.371Z,15.00
2022-09-10T14:07:13.398Z,15.70
2022-09-10T14:10:51.925Z,10.90
2022-09-10T14:14:24.411Z,10.60
2022-09-10T14:17:58.850Z,11.20
2022-09-10T14:21:28.422Z,10.00
2022-09-10T14:24:57.611Z,11.20
2022-09-10T14:28:30.096Z,9.70
2022-09-10T14:31:57.596Z,8.40
2022-09-10T14:35:46.214Z,15.70
2022-09-10T14:39:21.003Z,10.50
2022-09-10T14:42:49.291Z,10.90
2022-09-10T14:46:51.914Z,6.70
2022-09-10T14:50:38.901Z,8.00
2022-09-10T14:54:12.048Z,7.70
2022-09-10T14:57:41.619Z,5.50
2022-09-10T15:01:10.766Z,6.50
2022-09-10T15:04:39.031Z,5.60
2022-09-10T15:08:11.054Z,8.50
2022-09-10T15:11:42.507Z,6.40
2022-09-10T15:15:17.613Z,5.90
2022-09-10T15:18:45.341Z,7.30
2022-09-10T15:22:23.963Z,6.60
2022-09-10T15:25:55.527Z,8.60
2022-09-10T15:29:23.803Z,10.70
2022-09-10T15:32:54.543Z,8.40
2022-09-10T15:36:23.043Z,8.40
2022-09-10T15:39:51.703Z,11.20
2022-09-10T15:43:20.562Z,9.80
2022-09-10T15:46:48.247Z,11.10
2022-09-10T15:50:16.105Z,11.70
2022-09-10T15:53:43.201Z,11.60
2022-09-10T15:57:12.872Z,11.20
2022-09-10T16:00:39.932Z,12.50
2022-09-10T16:04:07.689Z,12.00
2022-09-10T16:07:34.536Z,11.60
2022-09-10T16:11:10.560Z,8.90
2022-09-10T16:14:44.626Z,10.20
2022-09-10T16:18:13.411Z,7.10
2022-09-10T16:21:42.921Z,7.90
2022-09-10T16:25:12.460Z,6.20
2022-09-10T16:28:39.498Z,5.70
2022-09-10T16:32:07.939Z,4.60
2022-09-10T16:35:39.946Z,4.40
2022-09-10T16:39:12.602Z,4.70
2022-09-10T16:42:39.655Z,5.60
2022-09-10T16:46:09.541Z,6.40
2022-09-10T16:49:37.147Z,6.70
2022-09-10T16:53:03.980Z,6.70
2022-09-10T16:56:33.840Z,6.80
2022-09-10T17:00:03.187Z,9.00
2022-09-10T17:03:31.579Z,6.00
2022-09-10T17:06:59.245Z,6.00
2022-09-10T17:10:27.389Z,5.20
2022-09-10T17:13:57.075Z,6.70
2022-09-10T17:17:24.643Z,6.60
2022-09-10T17:20:54.321Z,9.90
2022-09-10T17:24:23.155Z,6.20
2022-09-10T17:27:50.703Z,4.90
2022-09-10T17:31:17.794Z,5.00
2022-09-10T17:34:44.864Z,5.70
2022-09-10T17:38:14.578Z,6.90
2022-09-10T17:41:41.882Z,7.00
2022-09-10T17:45:11.591Z,9.40
2022-09-10T17:48:39.473Z,10.30
2022-09-10T17:52:06.889Z,11.30
2022-09-10T17:55:35.946Z,9.10
2022-09-10T17:59:07.314Z,10.10
2022-09-10T18:02:34.091Z,10.40
2022-09-10T18:06:06.127Z,12.80
2022-09-10T18:09:33.479Z,12.80
2022-09-10T18:13:01.118Z,15.20
2022-09-10T18:16:30.352Z,15.10
2022-09-10T18:19:59.151Z,16.60
2022-09-10T18:23:26.418Z,15.50
2022-09-10T18:26:57.664Z,17.00
2022-09-10T18:30:26.396Z,22.00
2022-09-10T18:33:54.026Z,24.30
2022-09-10T18:37:21.653Z,23.40
2022-09-10T18:40:49.350Z,31.00
2022-09-10T18:44:22.553Z,30.80
2022-09-10T18:47:50.944Z,34.20
2022-09-10T18:51:22.296Z,31.80
2022-09-10T18:54:49.283Z,28.40
2022-09-10T18:58:21.866Z,25.80
2022-09-10T19:01:51.984Z,28.90
2022-09-10T19:05:20.375Z,28.70
2022-09-10T19:08:54.317Z,31.80
2022-09-10T19:12:22.580Z,35.10
2022-09-10T19:16:00.033Z,31.80
2022-09-10T19:19:31.939Z,31.10
2022-09-10T19:23:00.784Z,31.10
2022-09-10T19:26:30.224Z,32.80
2022-09-10T19:29:58.638Z,35.80
2022-09-10T19:33:27.067Z,37.30
2022-09-10T19:36:57.422Z,33.50
2022-09-10T19:40:24.193Z,43.50
2022-09-10T19:43:54.876Z,38.50
2022-09-10T19:47:30.247Z,32.40
2022-09-10T19:50:57.828Z,35.50
2022-09-10T19:54:31.726Z,39.10
2022-09-10T19:58:00.415Z,44.10
2022-09-10T20:01:32.268Z,44.20
2022-09-10T20:05:01.251Z,42.70
2022-09-10T20:08:30.320Z,42.80
2022-09-10T20:11:57.540Z,40.50
2022-09-10T20:15:25.150Z,43.20
2022-09-10T20:18:51.889Z,42.80
2022-09-10T20:22:20.555Z,38.60
2022-09-10T20:25:50.517Z,42.90
2022-09-10T20:29:20.705Z,38.70
2022-09-10T20:32:47.685Z,39.50
2022-09-10T20:36:19.245Z,37.90
2022-09-10T20:39:48.734Z,38.70
2022-09-10T20:43:16.140Z,33.90
2022-09-10T20:46:46.876Z,35.10
2022-09-10T20:50:18.557Z,35.90
2022-09-10T20:53:53.295Z,33.60
2022-09-10T20:57:25.815Z,35.90
2022-09-10T21:01:00.230Z,27.90
2022-09-10T21:04:29.090Z,32.00
2022-09-10T21:07:57.344Z,32.80
2022-09-10T21:11:25.857Z,30.40
2022-09-10T21:15:00.554Z,29.90
2022-09-10T21:18:33.082Z,50.20
2022-09-10T21:22:08.052Z,35.50
2022-09-10T21:25:51.985Z,41.10
2022-09-10T21:29:28.693Z,51.60
2022-09-10T21:33:01.227Z,52.50
2022-09-10T21:36:37.916Z,51.10
2022-09-10T21:40:08.878Z,58.90
2022-09-10T21:44:02.470Z,59.50
2022-09-10T21:47:29.506Z,44.80
2022-09-10T21:51:04.773Z,50.70
2022-09-10T21:54:32.489Z,45.70
2022-09-10T21:58:00.316Z,40.50
2022-09-10T22:01:30.592Z,33.80
2022-09-10T22:04:58.806Z,33.00
2022-09-10T22:08:27.179Z,33.10
2022-09-10T22:12:00.820Z,29.60
2022-09-10T22:15:29.386Z,28.90
2022-09-10T22:19:00.599Z,27.80
2022-09-10T22:22:28.406Z,24.80
2022-09-10T22:25:55.875Z,27.70
2022-09-10T22:29:25.446Z,24.60
2022-09-10T22:32:54.037Z,24.90
2022-09-10T22:36:25.105Z,30.60
2022-09-10T22:39:52.945Z,24.90
2022-09-10T22:43:19.943Z,26.30
2022-09-10T22:46:48.198Z,27.10
2022-09-10T22:50:16.498Z,25.50
2022-09-10T22:53:45.622Z,23.60
2022-09-10T22:57:15.932Z,29.10
2022-09-10T23:00:44.428Z,31.90
2022-09-10T23:04:11.676Z,30.70
2022-09-10T23:07:38.974Z,29.40
2022-09-10T23:11:22.927Z,25.20
2022-09-10T23:14:50.018Z,24.20
2022-09-10T23:18:19.773Z,22.00
2022-09-10T23:21:48.999Z,22.50
2022-09-10T23:25:16.293Z,22.80
2022-09-10T23:28:43.601Z,21.10
2022-09-10T23:32:13.621Z,21.10
2022-09-10T23:35:40.752Z,19.00
2022-09-10T23:39:10.344Z,20.90
2022-09-10T23:42:37.499Z,20.60
2022-09-10T23:46:05.500Z,20.50
2022-09-10T23:49:35.657Z,22.30
2022-09-10T23:53:02.700Z,18.70
2022-09-10T23:56:30.885Z,23.80
2022-09-10T23:59:58.550Z,22.50
